Decoded Metar for LFLL (LYON ST. EXUPERY in FRANCE) (IATA:LYS) | Meteo·Mobile Aviation Weather
aviador You're here:

LFLL Decoded Metar

LYON ST. EXUPERY in FRANCE
Report Time2018-09-21 09:30:00
UTC Time2018-09-21 09:52:44
Flight Rules vfr VFR
Wind190° at 13 kt
W.Decomp.*RWY 18: 12.8 kt HW 2.0 kt RCW
W.Rank190° ranks 7
Current wind is above 190° avg. (11.3)
Visibility9999 m
Phenomena:N/A
Clouds:N/A
Expected CloudBase > 4,800 ft AGL from Temp-Dew spread
CeilingNone
Temp26°C (ISA +13)
Dew Point14°C (48% RH)
AAT22.6°C
QNH1016 hPa
Density Alt2,352 ft
Elevation787 ft
Report Wrong Elevation
Raw Report
LFLL 210930Z 19013KT CAVOK 26/14 Q1016 NOSIG=

Extra information for LFLL:More info

Metar Taf Metar & Taf Last 4 Metars F.Rules Stats Wind Profile Meteogram Temp Stats Airport Information Weather charts Add Link Nearby VenuesMetar ALERT Operation Metar Decoded Social comments